Terminal Aerodrome Forecast
Issued by NWS Jacksonville, FL

Home | Current Version | Previous Version | Text Only | Print | Product List | Glossary On
Versions: 1 2 3 4 5 6 7 8 9 10 11 12 13 14 15 16 17 18 19 20 21 22 23 24 25 26 27 28 29 30 31 32 33
000
FTUS42 KJAX 020639 AAA
TAFJAX
TAF AMD
KJAX 020639Z 0207/0306 VRB03KT P6SM FEW150 BKN250
      TEMPO 0207/0210 4SM BR
     FM021500 24005KT P6SM VCSH SCT025 BKN040
     FM021900 15006KT P6SM VCTS BKN040CB BKN250
     FM030200 VRB03KT P6SM FEW040 BKN100 BKN250=

USA.gov is the U.S. government's official web portal to all federal, state and local government web resources and services.